Time;durP1;ratioP1;P1;durP2;ratioP2;P2;SDS_P1;SDS_P2;PMS_P1;PMS_P2;Temp;Humidity;BMP_temperature;BMP_pressure;BME280_temperature;BME280_humidity;BME280_pressure;Samples;Min_cycle;Max_cycle;Signal;HPM_P1;HPM_P2
2022/12/05 00:01:39;;;;;;;11.70;7.13;;;8.40;66.10;;;;;;5072810;28;20048;-72
2022/12/05 00:04:10;;;;;;;11.05;7.13;;;8.40;66.30;;;;;;5072988;28;20031;-72
2022/12/05 00:06:37;;;;;;;12.10;6.85;;;8.40;66.30;;;;;;5055016;28;20025;-72
2022/12/05 00:09:08;;;;;;;8.88;6.20;;;8.40;66.20;;;;;;5072702;28;20099;-72
2022/12/05 00:11:38;;;;;;;11.25;7.00;;;8.40;66.10;;;;;;5055032;28;20063;-72
2022/12/05 00:14:05;;;;;;;9.70;6.13;;;8.40;66.90;;;;;;5053089;28;20032;-72
2022/12/05 00:16:37;;;;;;;10.35;6.35;;;8.40;66.10;;;;;;5073311;28;20032;-72
2022/12/05 00:19:06;;;;;;;10.00;6.50;;;8.40;66.00;;;;;;5076430;28;20522;-72
2022/12/05 00:21:34;;;;;;;12.18;7.25;;;8.30;65.90;;;;;;5076467;28;20025;-72
2022/12/05 00:24:01;;;;;;;11.32;6.90;;;8.30;65.90;;;;;;5041776;28;20037;-72
2022/12/05 00:26:31;;;;;;;13.75;7.63;;;8.20;65.80;;;;;;5056311;28;20515;-72
2022/12/05 00:29:00;;;;;;;9.90;6.88;;;8.20;65.70;;;;;;5056460;28;20025;-72
2022/12/05 00:31:28;;;;;;;12.18;7.22;;;8.10;65.60;;;;;;5073229;28;20029;-72
2022/12/05 00:34:06;;;;;;;12.52;7.65;;;8.10;66.50;;;;;;5067851;28;20029;-72
2022/12/05 00:36:36;;;;;;;15.40;8.82;;;8.10;65.80;;;;;;5070432;28;20035;-72
2022/12/05 00:39:06;;;;;;;11.98;7.72;;;8.00;65.70;;;;;;5058358;28;20032;-72
2022/12/05 00:41:35;;;;;;;12.55;7.53;;;8.00;65.70;;;;;;5076433;28;20448;-72
2022/12/05 00:44:04;;;;;;;12.05;7.40;;;7.90;65.70;;;;;;5058327;28;20024;-72
2022/12/05 00:46:34;;;;;;;11.35;7.32;;;7.90;65.80;;;;;;5076234;28;20448;-72
2022/12/05 00:49:04;;;;;;;12.52;7.45;;;7.80;65.80;;;;;;5056385;28;20523;-72
2022/12/05 00:51:38;;;;;;;12.68;8.00;;;7.80;65.90;;;;;;5058303;28;20467;-72
2022/12/05 00:54:07;;;;;;;;;;;7.80;66.00;;;;;;5058301;28;20033;-72
2022/12/05 00:56:36;;;;;;;11.23;6.90;;;7.70;65.90;;;;;;5075788;28;20356;-72
2022/12/05 00:59:08;;;;;;;11.73;7.75;;;7.70;66.00;;;;;;5075873;28;20040;-72
2022/12/05 01:01:39;;;;;;;11.13;6.93;;;7.70;66.30;;;;;;5075879;28;20119;-72
2022/12/05 01:04:12;;;;;;;11.68;7.40;;;7.70;66.70;;;;;;5073798;28;20025;-72
2022/12/05 01:06:38;;;;;;;11.10;7.45;;;7.70;66.90;;;;;;5072349;28;20387;-72
2022/12/05 01:09:09;;;;;;;13.98;7.90;;;7.70;67.10;;;;;;5074622;28;20021;-72
2022/12/05 01:11:37;;;;;;;13.48;8.48;;;7.70;67.30;;;;;;5075852;28;20021;-72
2022/12/05 01:14:06;;;;;;;12.35;7.97;;;7.70;67.20;;;;;;5074519;28;20090;-72
2022/12/05 01:16:35;;;;;;;13.85;8.95;;;7.80;67.30;;;;;;5075507;28;20081;-72
2022/12/05 01:19:13;;;;;;;13.77;8.25;;;7.80;67.20;;;;;;5075764;28;20017;-72
2022/12/05 01:21:42;;;;;;;10.80;7.32;;;7.80;67.10;;;;;;5075736;28;20086;-72
2022/12/05 01:24:09;;;;;;;11.73;6.90;;;7.80;67.10;;;;;;5071391;28;20031;-72
2022/12/05 01:26:36;;;;;;;10.23;6.22;;;7.80;67.10;;;;;;5075614;28;20033;-72
2022/12/05 01:29:02;;;;;;;11.93;7.03;;;7.90;67.20;;;;;;5074018;28;20032;-72
2022/12/05 01:31:34;;;;;;;9.90;6.10;;;7.90;67.20;;;;;;5074181;28;20029;-72
2022/12/05 01:34:02;;;;;;;9.82;6.13;;;7.90;67.20;;;;;;5075458;28;20073;-72
2022/12/05 01:36:31;;;;;;;14.48;7.55;;;7.90;67.20;;;;;;5074133;28;20044;-72
2022/12/05 01:38:57;;;;;;;9.75;6.50;;;8.00;67.30;;;;;;5074043;28;20119;-72
2022/12/05 01:41:28;;;;;;;10.38;6.65;;;8.00;67.10;;;;;;5075300;28;20098;-72
2022/12/05 01:44:17;;;;;;;10.40;6.85;;;8.00;67.00;;;;;;5075220;28;20450;-72
2022/12/05 01:46:48;;;;;;;8.65;6.10;;;8.00;67.10;;;;;;5036701;28;20040;-72
2022/12/05 01:49:19;;;;;;;10.60;6.75;;;8.10;67.00;;;;;;5074899;28;20036;-72
2022/12/05 01:51:57;;;;;;;15.27;7.53;;;8.10;66.90;;;;;;5075156;28;20040;-72
2022/12/05 01:54:24;;;;;;;11.68;6.95;;;8.10;66.90;;;;;;5074008;28;20039;-72
2022/12/05 01:56:59;;;;;;;11.77;7.30;;;8.20;66.90;;;;;;5074922;28;20031;-72
2022/12/05 01:59:35;;;;;;;10.88;6.97;;;8.20;66.90;;;;;;5074591;28;20020;-72
2022/12/05 02:02:04;;;;;;;9.07;6.50;;;8.30;67.00;;;;;;5074840;28;20036;-72
2022/12/05 02:04:33;;;;;;;9.18;6.57;;;8.30;67.00;;;;;;5074308;28;20039;-72
2022/12/05 02:07:10;;;;;;;9.27;6.28;;;8.30;67.10;;;;;;5074438;28;20526;-72
2022/12/05 02:09:38;;;;;;;12.63;6.85;;;8.40;67.20;;;;;;5074280;28;20031;-72
2022/12/05 02:12:08;;;;;;;10.85;6.57;;;8.40;68.00;;;;;;5074284;28;20079;-72
2022/12/05 02:14:49;;;;;;;15.52;7.90;;;8.50;67.20;;;;;;5056542;28;20025;-72
2022/12/05 02:17:45;;;;;;;13.40;7.40;;;8.60;67.30;;;;;;5074525;28;20457;-72
2022/12/05 02:20:32;;;;;;;9.68;6.00;;;8.70;67.20;;;;;;5074404;28;20028;-72
2022/12/05 02:23:24;;;;;;;11.40;7.03;;;8.70;67.10;;;;;;5073768;28;20029;-72
2022/12/05 02:26:22;;;;;;;12.23;7.13;;;8.80;67.10;;;;;;5053016;28;20407;-72
2022/12/05 02:29:16;;;;;;;11.40;7.05;;;8.80;66.90;;;;;;5058191;28;20033;-72
2022/12/05 02:31:56;;;;;;;11.50;6.72;;;8.90;66.70;;;;;;5073858;28;20468;-72
2022/12/05 02:34:41;;;;;;;11.02;6.97;;;8.90;66.50;;;;;;5074052;28;20384;-72
2022/12/05 02:37:31;;;;;;;10.25;6.65;;;8.90;66.40;;;;;;5074066;28;20108;-72
2022/12/05 02:40:27;;;;;;;10.50;6.47;;;9.00;66.40;;;;;;5073121;28;20060;-72
2022/12/05 02:43:00;;;;;;;9.10;5.88;;;9.00;66.40;;;;;;5070264;28;20479;-72
2022/12/05 02:45:29;;;;;;;12.73;7.57;;;9.10;66.40;;;;;;5056007;28;20028;-72
2022/12/05 02:47:59;;;;;;;9.25;6.00;;;9.10;66.30;;;;;;5055972;28;20037;-72
2022/12/05 02:50:32;;;;;;;9.35;6.03;;;9.10;66.20;;;;;;5073562;28;20020;-72
2022/12/05 02:53:06;;;;;;;11.63;6.88;;;9.20;66.30;;;;;;5073576;28;20051;-72
2022/12/05 02:55:33;;;;;;;10.93;7.18;;;9.20;66.10;;;;;;5073840;28;20032;-72
2022/12/05 02:58:03;;;;;;;11.50;7.32;;;9.30;66.00;;;;;;5055957;28;20426;-72
2022/12/05 03:00:29;;;;;;;9.88;6.68;;;9.30;65.90;;;;;;5070037;28;20113;-72
2022/12/05 03:03:10;;;;;;;11.85;6.78;;;9.30;65.90;;;;;;5073561;28;20046;-72
2022/12/05 03:05:50;;;;;;;15.15;7.35;;;9.30;65.80;;;;;;5073572;28;20031;-72
2022/12/05 03:08:25;;;;;;;12.07;7.95;;;9.40;65.70;;;;;;5073324;28;20456;-72
2022/12/05 03:11:00;;;;;;;12.32;7.90;;;9.40;65.70;;;;;;5073520;28;20051;-72
2022/12/05 03:13:37;;;;;;;13.20;7.97;;;9.40;65.60;;;;;;5073919;28;20024;-72
2022/12/05 03:16:28;;;;;;;11.30;7.60;;;9.50;65.60;;;;;;5073425;28;20024;-72
2022/12/05 03:19:11;;;;;;;13.02;7.72;;;9.50;65.60;;;;;;5073481;28;20438;-72
2022/12/05 03:21:55;;;;;;;15.65;8.77;;;9.50;65.50;;;;;;5073488;28;20124;-72
2022/12/05 03:24:23;;;;;;;18.10;9.10;;;9.50;65.40;;;;;;5072902;28;20032;-72
2022/12/05 03:26:58;;;;;;;19.80;11.57;;;9.60;65.50;;;;;;5073374;28;20329;-72
2022/12/05 03:29:39;;;;;;;18.58;11.82;;;9.60;65.40;;;;;;5073128;28;20059;-72
2022/12/05 03:32:12;;;;;;;20.38;12.68;;;9.60;65.20;;;;;;5073285;28;20052;-72
2022/12/05 03:34:48;;;;;;;20.92;12.98;;;9.60;64.90;;;;;;5073351;28;20063;-72
2022/12/05 03:37:40;;;;;;;21.98;13.05;;;9.60;64.80;;;;;;5073338;28;20054;-72
2022/12/05 03:40:16;;;;;;;24.05;13.98;;;9.60;64.70;;;;;;5073241;28;20028;-72
2022/12/05 03:42:53;;;;;;;20.85;12.73;;;9.60;64.70;;;;;;5073511;28;20035;-72
2022/12/05 03:45:29;;;;;;;20.30;12.35;;;9.60;64.70;;;;;;5073181;28;20020;-72
2022/12/05 03:48:10;;;;;;;22.25;12.02;;;9.60;64.60;;;;;;5055176;28;20028;-72
2022/12/05 03:50:45;;;;;;;23.30;12.63;;;9.60;64.50;;;;;;5072884;28;20044;-72
2022/12/05 03:53:19;;;;;;;22.30;12.70;;;9.60;64.30;;;;;;5069397;28;20036;-72
2022/12/05 03:55:57;;;;;;;19.52;12.95;;;9.60;64.20;;;;;;5051497;28;20452;-72
2022/12/05 03:58:34;;;;;;;17.15;11.20;;;9.60;64.20;;;;;;5077395;28;20099;-72
2022/12/05 04:01:03;;;;;;;17.40;11.32;;;9.50;64.30;;;;;;5071301;28;20139;-72
2022/12/05 04:03:54;;;;;;;18.20;11.82;;;9.60;64.30;;;;;;5076981;28;20025;-72
2022/12/05 04:06:32;;;;;;;15.93;10.93;;;9.60;64.30;;;;;;5076638;28;20473;-72
2022/12/05 04:09:14;;;;;;;18.48;11.23;;;9.60;64.20;;;;;;5076988;28;20032;-72
2022/12/05 04:11:52;;;;;;;18.48;11.63;;;9.60;64.20;;;;;;5076905;28;20104;-72
2022/12/05 04:14:32;;;;;;;15.25;11.10;;;9.60;64.10;;;;;;5076580;28;20028;-72
2022/12/05 04:17:24;;;;;;;17.58;11.48;;;9.60;64.20;;;;;;5058792;28;20373;-72
2022/12/05 04:23:00;;;;;;;15.48;10.85;;;9.60;63.90;;;;;;4980212;28;20545;-72
2022/12/05 04:25:38;;;;;;;16.02;10.95;;;9.60;63.90;;;;;;5059286;28;20223;-72
2022/12/05 04:28:14;;;;;;;13.27;9.10;;;9.60;63.70;;;;;;5076534;28;20043;-72
2022/12/05 04:30:49;;;;;;;15.10;10.27;;;9.60;63.70;;;;;;5076264;28;20108;-72
2022/12/05 04:33:35;;;;;;;13.73;10.15;;;9.60;63.80;;;;;;5076210;28;20020;-72
2022/12/05 04:36:13;;;;;;;13.48;9.95;;;9.60;63.80;;;;;;5076220;28;20468;-72
2022/12/05 04:38:50;;;;;;;14.60;9.98;;;9.60;63.80;;;;;;5058307;28;20055;-72
2022/12/05 04:41:28;;;;;;;16.05;9.48;;;9.60;63.70;;;;;;5058350;28;20021;-72
2022/12/05 04:44:00;;;;;;;15.80;10.65;;;9.60;63.60;;;;;;5058318;28;20032;-72
2022/12/05 04:46:26;;;;;;;15.55;10.57;;;9.60;63.70;;;;;;5058266;28;20043;-72
2022/12/05 04:48:59;;;;;;;15.48;10.40;;;9.60;63.60;;;;;;5076156;28;20029;-72
2022/12/05 04:51:33;;;;;;;15.77;10.60;;;9.60;63.50;;;;;;5076097;28;20116;-72
2022/12/05 04:54:14;;;;;;;15.30;11.38;;;9.60;63.60;;;;;;5062570;28;20036;-72
2022/12/05 04:56:42;;;;;;;17.88;11.80;;;9.60;63.50;;;;;;5056156;28;20401;-72
2022/12/05 04:59:09;;;;;;;15.40;11.00;;;9.60;63.40;;;;;;5055820;28;20033;-72
2022/12/05 05:01:47;;;;;;;15.13;10.68;;;9.60;63.40;;;;;;5066128;28;20036;-72
2022/12/05 05:04:30;;;;;;;16.67;11.23;;;9.60;63.50;;;;;;5057058;28;20034;-72
2022/12/05 05:06:58;;;;;;;19.92;12.95;;;9.60;63.40;;;;;;5075949;28;20375;-72
2022/12/05 05:09:27;;;;;;;15.05;10.85;;;9.60;63.40;;;;;;5075742;28;20028;-72
2022/12/05 05:11:58;;;;;;;17.90;12.93;;;9.60;63.50;;;;;;5075810;28;20029;-72
2022/12/05 05:14:27;;;;;;;18.35;12.73;;;9.60;63.50;;;;;;5075754;28;20111;-72
2022/12/05 05:17:01;;;;;;;19.88;12.85;;;9.60;63.40;;;;;;5075317;28;20111;-72
2022/12/05 05:19:29;;;;;;;;;;;9.60;63.40;;;;;;5075756;28;20017;-72
2022/12/05 05:22:01;;;;;;;15.60;10.18;;;9.60;63.60;;;;;;5075816;28;19995;-72
2022/12/05 05:24:27;;;;;;;15.05;10.63;;;9.60;63.40;;;;;;5075158;28;20115;-72
2022/12/05 05:26:58;;;;;;;15.93;11.23;;;9.60;63.40;;;;;;5075376;28;20468;-72
2022/12/05 05:29:27;;;;;;;16.63;10.73;;;9.60;63.30;;;;;;5075602;28;20035;-72
2022/12/05 05:31:55;;;;;;;16.00;10.77;;;9.60;63.40;;;;;;5057495;28;20044;-72
2022/12/05 05:34:21;;;;;;;13.10;9.27;;;9.60;63.30;;;;;;5075063;28;20358;-72
2022/12/05 05:36:55;;;;;;;12.85;9.23;;;9.60;63.30;;;;;;5058975;28;20037;-72
2022/12/05 05:39:23;;;;;;;17.00;9.57;;;9.60;63.30;;;;;;5054907;28;20025;-72
2022/12/05 05:41:51;;;;;;;14.52;9.48;;;9.50;63.30;;;;;;5055113;28;20029;-72
2022/12/05 05:44:22;;;;;;;13.68;9.07;;;9.60;63.20;;;;;;5054936;28;20025;-72
2022/12/05 05:46:51;;;;;;;11.95;8.95;;;9.50;63.20;;;;;;5055110;28;20025;-72
2022/12/05 05:49:16;;;;;;;11.23;8.38;;;9.50;63.20;;;;;;5037080;28;20067;-72
2022/12/05 05:51:45;;;;;;;14.60;9.85;;;9.50;63.30;;;;;;5054926;28;20485;-72
2022/12/05 05:54:17;;;;;;;13.20;9.60;;;9.50;63.30;;;;;;5068317;28;20025;-72
2022/12/05 05:56:47;;;;;;;14.65;9.95;;;9.50;63.20;;;;;;5074917;28;20078;-72
2022/12/05 05:59:13;;;;;;;13.05;8.63;;;9.50;63.10;;;;;;5074388;28;20032;-72
2022/12/05 06:01:38;;;;;;;11.40;7.68;;;9.50;63.20;;;;;;5071413;28;20036;-72
2022/12/05 06:04:05;;;;;;;11.27;8.07;;;9.50;63.30;;;;;;5074848;28;20407;-72
2022/12/05 06:06:30;;;;;;;11.77;8.15;;;9.60;63.40;;;;;;5056744;28;20388;-72
2022/12/05 06:08:56;;;;;;;11.15;8.05;;;9.60;63.40;;;;;;5074401;28;20020;-72
2022/12/05 06:11:25;;;;;;;13.20;9.27;;;9.60;63.40;;;;;;5074504;28;20029;-72
2022/12/05 06:13:52;;;;;;;16.52;10.57;;;9.60;63.30;;;;;;5055976;28;20078;-72
2022/12/05 06:16:23;;;;;;;16.80;10.13;;;9.60;63.20;;;;;;5073915;28;20441;-72
2022/12/05 06:18:50;;;;;;;14.55;9.57;;;9.60;63.20;;;;;;5074349;28;20029;-72
2022/12/05 06:21:18;;;;;;;14.65;9.63;;;9.60;63.20;;;;;;5073981;28;20383;-72
2022/12/05 06:23:45;;;;;;;15.30;10.27;;;9.60;63.10;;;;;;5073579;28;20472;-72
2022/12/05 06:26:18;;;;;;;14.40;9.25;;;9.60;62.90;;;;;;5056311;28;20051;-72
2022/12/05 06:28:47;;;;;;;14.90;9.85;;;9.50;62.80;;;;;;5074110;28;20495;-72
2022/12/05 06:31:22;;;;;;;13.95;8.85;;;9.60;62.90;;;;;;5071469;28;20391;-72
2022/12/05 06:33:50;;;;;;;14.85;9.55;;;9.50;62.90;;;;;;5066384;28;20020;-73
2022/12/05 06:36:20;;;;;;;14.65;9.05;;;9.50;63.00;;;;;;5055879;28;20152;-72
2022/12/05 06:38:46;;;;;;;14.68;9.80;;;9.60;63.20;;;;;;5074076;28;20028;-72
2022/12/05 06:41:15;;;;;;;15.40;10.10;;;9.50;63.00;;;;;;5073682;28;20032;-73
2022/12/05 06:43:42;;;;;;;17.10;10.40;;;9.50;62.90;;;;;;5073583;28;20029;-72
2022/12/05 06:46:12;;;;;;;20.88;12.02;;;9.50;63.00;;;;;;5073901;28;20059;-72
2022/12/05 06:48:44;;;;;;;16.83;11.15;;;9.40;62.90;;;;;;5072322;28;20039;-72
2022/12/05 06:51:15;;;;;;;18.77;11.55;;;9.40;63.00;;;;;;5067047;28;20025;-72
2022/12/05 06:53:41;;;;;;;16.88;10.43;;;9.40;63.00;;;;;;5062648;28;20078;-72
2022/12/05 06:56:11;;;;;;;18.50;11.27;;;9.40;63.10;;;;;;5073738;28;20031;-72
2022/12/05 06:58:40;;;;;;;17.15;11.40;;;9.40;63.10;;;;;;5073705;28;20031;-72
2022/12/05 07:03:55;;;;;;;20.92;11.18;;;9.30;63.20;;;;;;5070077;28;20072;-72
2022/12/05 07:06:21;;;;;;;18.50;11.10;;;9.30;63.40;;;;;;5057436;28;20037;-73
2022/12/05 07:08:47;;;;;;;17.75;11.27;;;9.30;63.50;;;;;;5053628;28;20021;-73
2022/12/05 07:11:13;;;;;;;18.70;11.50;;;9.30;63.60;;;;;;5053651;28;20444;-72
2022/12/05 07:13:38;;;;;;;19.27;10.98;;;9.30;63.70;;;;;;5053501;28;20032;-72
2022/12/05 07:16:07;;;;;;;19.65;11.23;;;9.30;63.80;;;;;;5053403;28;20094;-72
2022/12/05 07:18:34;;;;;;;18.55;11.07;;;9.40;63.80;;;;;;5053539;28;20053;-72
2022/12/05 07:21:06;;;;;;;22.05;12.80;;;9.30;63.70;;;;;;5054496;28;20040;-74
2022/12/05 07:23:32;;;;;;;18.92;11.63;;;9.30;63.70;;;;;;5035696;28;20039;-72
2022/12/05 07:26:07;;;;;;;21.48;11.35;;;9.40;63.90;;;;;;5052816;28;20033;-72
2022/12/05 07:28:33;;;;;;;20.42;10.85;;;9.40;63.80;;;;;;5053370;28;20070;-72
2022/12/05 07:31:08;;;;;;;19.02;10.75;;;9.40;63.90;;;;;;5054382;28;20174;-72
2022/12/05 07:33:34;;;;;;;18.35;10.98;;;9.50;64.10;;;;;;5050373;28;20033;-72
2022/12/05 07:36:01;;;;;;;16.85;10.40;;;9.50;64.00;;;;;;5073045;28;20034;-72
2022/12/05 07:38:27;;;;;;;18.83;11.38;;;9.50;63.90;;;;;;5073231;28;20036;-72
2022/12/05 07:40:56;;;;;;;18.30;10.93;;;9.60;63.90;;;;;;5067596;28;20114;-72
2022/12/05 07:43:22;;;;;;;16.98;10.65;;;9.60;63.80;;;;;;5072485;28;20208;-72
2022/12/05 07:45:48;;;;;;;18.50;11.38;;;9.70;63.90;;;;;;5073027;28;20372;-72
2022/12/05 07:48:15;;;;;;;18.00;10.85;;;9.70;63.70;;;;;;5073020;28;20035;-72
2022/12/05 07:50:41;;;;;;;19.17;11.15;;;9.70;63.60;;;;;;5072646;28;20072;-72
2022/12/05 07:53:06;;;;;;;17.85;10.88;;;9.80;63.60;;;;;;5068957;28;20029;-72
2022/12/05 07:55:32;;;;;;;19.60;11.35;;;9.80;63.50;;;;;;5052728;28;20045;-72
2022/12/05 07:58:00;;;;;;;17.48;10.95;;;9.90;63.50;;;;;;5052961;28;20021;-72
2022/12/05 08:00:26;;;;;;;18.63;11.40;;;9.90;63.40;;;;;;5035625;28;20048;-72
2022/12/05 08:02:52;;;;;;;15.90;10.70;;;9.90;63.10;;;;;;5069230;28;20045;-72
2022/12/05 08:05:18;;;;;;;21.50;12.23;;;10.00;63.30;;;;;;5071984;28;20128;-72
2022/12/05 08:07:43;;;;;;;19.15;11.60;;;10.00;63.10;;;;;;5054710;28;20041;-72
2022/12/05 08:10:10;;;;;;;18.85;10.95;;;10.10;63.00;;;;;;5049840;28;20025;-71
2022/12/05 08:12:36;;;;;;;18.25;11.27;;;10.00;62.90;;;;;;5065093;28;20486;-71
2022/12/05 08:15:02;;;;;;;17.67;11.63;;;10.00;62.80;;;;;;5072526;28;20044;-72
2022/12/05 08:17:29;;;;;;;25.90;13.27;;;10.10;62.90;;;;;;5055591;28;20078;-72
2022/12/05 08:19:58;;;;;;;22.20;13.02;;;10.10;63.70;;;;;;5052869;28;20028;-72
2022/12/05 08:22:23;;;;;;;23.73;12.95;;;10.10;62.80;;;;;;5052798;28;20375;-72
2022/12/05 08:24:49;;;;;;;23.20;13.68;;;10.10;62.80;;;;;;5070098;28;20033;-72
2022/12/05 08:27:15;;;;;;;26.33;13.57;;;10.10;62.80;;;;;;5054971;28;20040;-72
2022/12/05 08:29:41;;;;;;;28.80;13.75;;;10.10;62.80;;;;;;5072054;28;20456;-72
2022/12/05 08:32:07;;;;;;;24.08;13.27;;;10.10;63.00;;;;;;5054326;28;20032;-72
2022/12/05 08:34:36;;;;;;;23.00;13.73;;;10.10;63.00;;;;;;5072310;28;20028;-72
2022/12/05 08:37:04;;;;;;;21.98;13.13;;;10.10;62.90;;;;;;5057316;28;20037;-72
2022/12/05 08:39:31;;;;;;;21.73;12.73;;;10.10;63.00;;;;;;5056258;28;20122;-72
2022/12/05 08:41:56;;;;;;;22.15;12.75;;;10.10;63.10;;;;;;5038392;28;20125;-72
2022/12/05 08:44:23;;;;;;;19.33;12.32;;;10.10;63.30;;;;;;5055981;28;20108;-72
2022/12/05 08:46:52;;;;;;;21.60;12.48;;;10.10;63.40;;;;;;5056591;28;20037;-72
2022/12/05 08:49:18;;;;;;;22.38;13.35;;;10.10;63.50;;;;;;5037879;28;20052;-72
2022/12/05 08:51:44;;;;;;;21.45;12.95;;;10.20;63.50;;;;;;5067574;28;20025;-72
2022/12/05 08:54:10;;;;;;;21.10;11.95;;;10.20;63.60;;;;;;5072163;28;20036;-72
2022/12/05 08:56:38;;;;;;;23.92;12.65;;;10.20;63.70;;;;;;5055551;28;20051;-72
2022/12/05 08:59:05;;;;;;;21.75;12.60;;;10.20;63.60;;;;;;5037938;28;20037;-72
2022/12/05 09:01:32;;;;;;;21.48;13.18;;;10.20;63.60;;;;;;5055951;28;20396;-72
2022/12/05 09:04:03;;;;;;;20.15;12.15;;;10.10;63.70;;;;;;5058657;28;20024;-72
2022/12/05 09:06:30;;;;;;;22.27;13.35;;;10.10;63.90;;;;;;5038314;28;20040;-72
2022/12/05 09:09:03;;;;;;;18.33;11.20;;;10.10;64.10;;;;;;5055432;28;20025;-72
2022/12/05 09:11:32;;;;;;;18.55;11.82;;;10.20;64.30;;;;;;5051448;28;20055;-72
2022/12/05 09:14:01;;;;;;;19.50;11.63;;;10.20;64.30;;;;;;5073698;28;20020;-72
2022/12/05 09:16:29;;;;;;;19.00;10.50;;;10.20;64.40;;;;;;5075354;28;20052;-72
2022/12/05 09:18:55;;;;;;;17.85;11.20;;;10.30;64.40;;;;;;5057621;28;20024;-72
2022/12/05 09:21:25;;;;;;;19.35;11.57;;;10.30;64.40;;;;;;5075596;28;20028;-72
2022/12/05 09:23:51;;;;;;;19.60;11.77;;;10.40;64.30;;;;;;5075223;28;20423;-72
2022/12/05 09:26:21;;;;;;;19.65;11.55;;;10.40;63.80;;;;;;5074923;28;20528;-72
2022/12/05 09:28:47;;;;;;;19.38;11.85;;;10.40;63.50;;;;;;5075366;28;20025;-72
2022/12/05 09:31:19;;;;;;;21.15;12.57;;;10.50;63.50;;;;;;5075025;28;20464;-72
2022/12/05 09:33:45;;;;;;;19.52;11.82;;;10.50;63.40;;;;;;5060874;28;20075;-72
2022/12/05 09:36:15;;;;;;;19.13;12.45;;;10.50;63.40;;;;;;5055246;28;20025;-72
2022/12/05 09:38:42;;;;;;;23.33;12.43;;;10.50;63.10;;;;;;5037376;28;20025;-72
2022/12/05 09:44:34;;;;;;;18.85;11.13;;;10.60;62.70;;;;;;5054834;28;20083;-72
2022/12/05 09:47:26;;;;;;;18.40;11.55;;;10.50;62.60;;;;;;5056236;28;20036;-72
2022/12/05 09:50:27;;;;;;;20.48;11.82;;;10.60;62.80;;;;;;5054703;28;20029;-72
2022/12/05 09:53:05;;;;;;;21.05;11.65;;;10.50;62.80;;;;;;5045825;28;20039;-72
2022/12/05 09:55:54;;;;;;;19.35;11.25;;;10.60;62.80;;;;;;5054695;28;20392;-72
2022/12/05 09:58:54;;;;;;;22.45;12.73;;;10.60;63.00;;;;;;5063426;28;20468;-72
2022/12/05 10:01:19;;;;;;;19.35;12.23;;;10.70;62.80;;;;;;4957052;28;20046;-72
2022/12/05 10:03:57;;;;;;;18.90;11.30;;;10.80;62.60;;;;;;4973619;28;20458;-72
2022/12/05 10:06:39;;;;;;;19.52;12.20;;;10.70;62.60;;;;;;4967655;28;20045;-72
2022/12/05 10:09:36;;;;;;;19.95;11.50;;;10.80;62.60;;;;;;4993177;28;20565;-72
2022/12/05 10:12:28;;;;;;;19.35;11.50;;;10.80;62.40;;;;;;4992989;28;20529;-72
2022/12/05 10:15:03;;;;;;;20.70;12.32;;;10.90;62.20;;;;;;4992928;28;20398;-72
2022/12/05 10:17:33;;;;;;;23.85;13.30;;;10.90;62.20;;;;;;4991541;28;20039;-72
2022/12/05 10:20:09;;;;;;;22.40;13.40;;;10.80;62.00;;;;;;4992481;28;20026;-72
2022/12/05 10:23:01;;;;;;;24.65;13.60;;;10.80;62.00;;;;;;4973758;28;20035;-72
2022/12/05 10:25:30;;;;;;;23.83;13.52;;;10.80;62.30;;;;;;4980456;28;20096;-72
2022/12/05 10:28:14;;;;;;;25.15;14.00;;;10.70;62.40;;;;;;4976504;28;20114;-72
2022/12/05 10:30:41;;;;;;;20.52;12.95;;;10.70;62.30;;;;;;4992702;28;20050;-72
2022/12/05 10:33:17;;;;;;;19.08;11.73;;;10.70;62.60;;;;;;4992419;28;20038;-72
2022/12/05 10:35:43;;;;;;;16.83;11.05;;;10.60;62.90;;;;;;4977175;28;20030;-72
2022/12/05 10:38:25;;;;;;;19.35;11.43;;;10.60;62.80;;;;;;5074360;28;20029;-72
2022/12/05 10:40:54;;;;;;;17.42;10.88;;;10.50;62.60;;;;;;5056110;28;20115;-72
2022/12/05 10:43:31;;;;;;;19.35;10.82;;;10.50;62.70;;;;;;5074313;28;20037;-72
2022/12/05 10:45:58;;;;;;;17.40;10.60;;;10.50;62.80;;;;;;5073510;28;20060;-72
2022/12/05 10:48:24;;;;;;;15.63;10.02;;;10.50;62.90;;;;;;5065334;28;20024;-72
2022/12/05 10:50:53;;;;;;;15.43;9.43;;;10.40;63.00;;;;;;5069242;28;20025;-72
2022/12/05 10:53:32;;;;;;;17.27;9.55;;;10.40;63.30;;;;;;5073420;28;20057;-72
2022/12/05 10:55:57;;;;;;;18.23;9.93;;;10.40;63.40;;;;;;5055839;28;20032;-72
2022/12/05 10:58:28;;;;;;;15.70;9.07;;;10.40;63.40;;;;;;5073710;28;20021;-72
2022/12/05 11:01:06;;;;;;;19.77;8.85;;;10.40;63.40;;;;;;5054599;28;20064;-72
2022/12/05 11:03:39;;;;;;;20.85;10.27;;;10.40;63.30;;;;;;5053623;28;20043;-72
2022/12/05 11:06:25;;;;;;;14.95;9.07;;;10.40;63.30;;;;;;5070213;28;20031;-72
2022/12/05 11:08:58;;;;;;;15.40;8.57;;;10.40;63.20;;;;;;5073383;28;20040;-72
2022/12/05 11:11:32;;;;;;;16.40;10.00;;;10.40;63.30;;;;;;5073478;28;20024;-73
2022/12/05 11:14:23;;;;;;;22.05;10.68;;;10.30;63.50;;;;;;5055764;28;20425;-72
2022/12/05 11:16:59;;;;;;;17.45;10.68;;;10.30;63.40;;;;;;5064775;28;20053;-72
2022/12/05 11:19:31;;;;;;;20.92;11.55;;;10.30;63.50;;;;;;5035402;28;20032;-72
2022/12/05 11:21:57;;;;;;;16.83;10.05;;;10.20;63.20;;;;;;5060828;28;20074;-71
2022/12/05 11:24:30;;;;;;;15.95;9.75;;;10.20;63.50;;;;;;5053242;28;20033;-72
2022/12/05 11:26:59;;;;;;;17.58;9.77;;;10.20;63.60;;;;;;5052057;28;20025;-72
2022/12/05 11:29:38;;;;;;;17.92;10.32;;;10.20;63.70;;;;;;5070508;28;20114;-72
2022/12/05 11:32:16;;;;;;;17.10;9.63;;;10.20;63.80;;;;;;5073148;28;20036;-72
2022/12/05 11:34:54;;;;;;;18.27;10.38;;;10.20;63.60;;;;;;5052908;28;20041;-72
2022/12/05 11:37:32;;;;;;;16.52;9.65;;;10.20;63.50;;;;;;5058915;28;20456;-74
2022/12/05 11:40:01;;;;;;;18.77;9.75;;;10.10;63.40;;;;;;5070526;28;20028;-74
2022/12/05 11:42:33;;;;;;;15.95;9.73;;;10.10;63.30;;;;;;5054929;28;20078;-74
2022/12/05 11:45:36;;;;;;;16.08;9.00;;;10.10;63.40;;;;;;5053446;28;20028;-74
2022/12/05 11:48:32;;;;;;;17.63;9.55;;;10.10;63.50;;;;;;5055596;28;20042;-74
2022/12/05 11:51:32;;;;;;;16.25;8.95;;;10.10;63.50;;;;;;5054630;28;20028;-72
2022/12/05 11:54:11;;;;;;;16.92;9.75;;;10.10;63.60;;;;;;5072882;28;20079;-76
2022/12/05 11:56:51;;;;;;;16.67;8.82;;;10.10;63.30;;;;;;5054663;28;20510;-74
2022/12/05 11:59:43;;;;;;;19.70;10.70;;;10.10;63.40;;;;;;5062480;28;20037;-74
2022/12/05 12:02:46;;;;;;;15.57;9.02;;;10.00;63.00;;;;;;5069930;28;20086;-74
2022/12/05 12:05:42;;;;;;;12.75;7.35;;;10.10;63.20;;;;;;5052302;28;20127;-74
2022/12/05 12:08:22;;;;;;;13.60;8.63;;;10.10;63.50;;;;;;5044202;28;20151;-74
2022/12/05 12:10:54;;;;;;;17.95;8.60;;;10.10;63.40;;;;;;5055060;28;20021;-74
2022/12/05 12:13:39;;;;;;;15.02;9.00;;;10.10;63.40;;;;;;5057155;28;20029;-74
2022/12/05 12:16:16;;;;;;;;;;;10.10;63.20;;;;;;5077194;28;20051;-74
2022/12/05 12:19:09;;;;;;;13.95;7.95;;;10.20;63.40;;;;;;5061058;28;20300;-74
2022/12/05 12:22:09;;;;;;;14.52;8.45;;;10.20;63.10;;;;;;5056639;28;20104;-74
2022/12/05 12:24:47;;;;;;;14.20;7.97;;;10.20;62.80;;;;;;5056590;28;20036;-74
2022/12/05 12:27:30;;;;;;;15.57;8.32;;;10.20;62.40;;;;;;5038881;28;20024;-74
2022/12/05 12:30:08;;;;;;;17.73;8.18;;;10.20;62.40;;;;;;5056541;28;20067;-74
2022/12/05 12:33:01;;;;;;;21.00;8.75;;;10.20;62.30;;;;;;5056641;28;20021;-74
2022/12/05 12:35:46;;;;;;;16.60;8.05;;;10.20;62.30;;;;;;5055434;28;20078;-74
2022/12/05 12:38:30;;;;;;;;;;;10.10;61.90;;;;;;5039100;28;20029;-77
2022/12/05 12:41:29;;;;;;;13.37;7.77;;;10.10;62.30;;;;;;5056543;28;19980;-75
2022/12/05 12:44:03;;;;;;;13.00;7.78;;;10.10;61.80;;;;;;5032762;28;20322;-74
2022/12/05 12:46:52;;;;;;;16.30;7.53;;;10.10;62.00;;;;;;5038557;28;20384;-74
2022/12/05 12:49:35;;;;;;;17.80;9.27;;;10.10;62.00;;;;;;5038419;28;20033;-74
2022/12/05 12:52:33;;;;;;;16.08;9.25;;;10.00;62.00;;;;;;5055067;28;20028;-74
2022/12/05 12:55:23;;;;;;;16.25;8.25;;;10.00;62.10;;;;;;5055998;28;20469;-74
2022/12/05 12:57:56;;;;;;;14.52;8.75;;;10.00;62.30;;;;;;5038338;28;20025;-74
2022/12/05 13:01:03;;;;;;;16.57;8.90;;;10.00;62.40;;;;;;5037974;28;20076;-74
2022/12/05 13:03:48;;;;;;;16.60;8.52;;;10.00;62.40;;;;;;5055868;28;20048;-74
2022/12/05 13:06:39;;;;;;;15.55;8.98;;;10.00;62.20;;;;;;5056063;28;20041;-74
2022/12/05 13:09:20;;;;;;;19.10;9.30;;;10.00;62.20;;;;;;5056027;28;20032;-74
2022/12/05 13:11:48;;;;;;;17.23;8.50;;;10.00;61.80;;;;;;5054675;28;20350;-74
2022/12/05 13:14:19;;;;;;;14.27;8.48;;;10.00;61.70;;;;;;5054198;28;20040;-74
2022/12/05 13:16:49;;;;;;;15.98;8.70;;;9.90;61.70;;;;;;5038136;28;20036;-74
2022/12/05 13:20:03;;;;;;;15.48;9.18;;;9.90;61.60;;;;;;5055548;28;20481;-74
2022/12/05 13:22:29;;;;;;;15.27;8.43;;;9.90;61.70;;;;;;4993956;28;20057;-74
2022/12/05 13:24:55;;;;;;;15.82;9.15;;;9.90;61.60;;;;;;4977303;28;20031;-74